Time;durP1;ratioP1;P1;durP2;ratioP2;P2;SDS_P1;SDS_P2;PMS_P1;PMS_P2;Temp;Humidity;BMP_temperature;BMP_pressure;BME280_temperature;BME280_humidity;BME280_pressure;Samples;Min_cycle;Max_cycle;Signal;HPM_P1;HPM_P2
2024/02/11 00:01:37;;;;;;;;;;;;;;;11.67;51.00;98052.75;4917878;28;98403;-70
2024/02/11 00:04:04;;;;;;;;;;;;;;;11.67;50.89;98058.97;4903671;28;98276;-65
2024/02/11 00:06:30;;;;;;;;;;;;;;;11.67;51.09;98063.56;4938935;28;98122;-64
2024/02/11 00:08:59;;;;;;;;;;;;;;;11.68;50.97;98067.84;4924008;28;97906;-65
2024/02/11 00:11:28;;;;;;;;;;;;;;;11.68;50.84;98060.53;4933016;28;98194;-69
2024/02/11 00:13:55;;;;;;;;;;;;;;;11.68;50.93;98060.53;4909919;28;98156;-69
2024/02/11 00:16:23;;;;;;;;;;;;;;;11.68;50.93;98060.53;4907916;28;98460;-64
2024/02/11 00:18:51;;;;;;;;;;;;;;;11.67;50.85;98053.56;4920217;28;97920;-69
2024/02/11 00:21:19;;;;;;;;;;;;;;;11.69;50.79;98047.81;4906425;28;98953;-65
2024/02/11 00:23:47;;;;;;;;;;;;;;;11.69;50.91;98045.13;4911943;28;98097;-69
2024/02/11 00:26:14;;;;;;;;;;;;;;;11.68;50.91;98046.25;4918647;28;98292;-65
2024/02/11 00:28:41;;;;;;;;;;;;;;;11.67;50.99;98041.97;4918107;28;98356;-69
2024/02/11 00:31:07;;;;;;;;;;;;;;;11.67;50.98;98045.47;4921800;28;98257;-65
2024/02/11 00:33:39;;;;;;;;;;;;;;;11.67;51.06;98048.16;4906083;28;98100;-65
2024/02/11 00:36:09;;;;;;;;;;;;;;;11.67;50.97;98040.06;4922377;28;98532;-69
2024/02/11 00:38:35;;;;;;;;;;;;;;;11.66;50.88;98041.19;4907774;28;98262;-65
2024/02/11 00:41:04;;;;;;;;;;;;;;;11.67;50.97;98037.38;4936058;28;98914;-70
2024/02/11 00:43:30;;;;;;;;;;;;;;;11.67;51.08;98036.56;4909915;28;99295;-69
2024/02/11 00:46:02;;;;;;;;;;;;;;;11.67;50.94;98039.25;4919514;28;98273;-65
2024/02/11 00:48:33;;;;;;;;;;;;;;;11.66;51.02;98038.47;4920408;28;98373;-65
2024/02/11 00:51:00;;;;;;;;;;;;;;;11.66;51.01;98030.38;4943413;28;98296;-69
2024/02/11 00:53:26;;;;;;;;;;;;;;;11.66;51.18;98024.19;4925199;28;98059;-65
2024/02/11 00:55:52;;;;;;;;;;;;;;;11.66;51.01;98026.91;4925452;28;99871;-69
2024/02/11 00:58:19;;;;;;;;;;;;;;;11.65;50.99;98028.03;4910010;28;98145;-69
2024/02/11 01:00:45;;;;;;;;;;;;;;;11.65;51.07;98033.44;4924025;28;99910;-65
2024/02/11 01:03:15;;;;;;;;;;;;;;;11.65;50.95;98028.03;4921978;28;99417;-65
2024/02/11 01:05:45;;;;;;;;;;;;;;;11.64;51.13;98018.38;4903131;28;99958;-64
2024/02/11 01:08:13;;;;;;;;;;;;;;;11.64;51.04;98026.47;4907847;28;98701;-64
2024/02/11 01:10:40;;;;;;;;;;;;;;;11.63;51.11;98017.59;4921723;28;98865;-65
2024/02/11 01:13:13;;;;;;;;;;;;;;;11.63;50.82;98020.28;4922654;28;98137;-65
2024/02/11 01:15:41;;;;;;;;;;;;;;;11.63;51.04;98020.28;4910995;28;98149;-64
2024/02/11 01:18:09;;;;;;;;;;;;;;;11.63;51.01;98025.69;4923805;28;98892;-65
2024/02/11 01:20:36;;;;;;;;;;;;;;;11.63;51.01;98022.97;4900326;28;100281;-64
2024/02/11 01:23:03;;;;;;;;;;;;;;;11.63;51.01;98022.16;4901122;28;99507;-64
2024/02/11 01:25:30;;;;;;;;;;;;;;;11.62;51.00;98013.28;4942205;28;98157;-69
2024/02/11 01:27:57;;;;;;;;;;;;;;;11.63;51.08;98016.75;4921857;28;97943;-64
2024/02/11 01:30:24;;;;;;;;;;;;;;;11.62;51.02;98017.91;4920226;28;98135;-69
2024/02/11 01:32:50;;;;;;;;;;;;;;;11.63;50.98;98014.06;4921395;28;98136;-64
2024/02/11 01:35:18;;;;;;;;;;;;;;;11.62;50.95;98013.28;4904689;28;98293;-65
2024/02/11 01:37:45;;;;;;;;;;;;;;;11.62;51.17;98015.97;4919821;28;98520;-69
2024/02/11 01:40:15;;;;;;;;;;;;;;;11.62;51.04;98015.19;4915162;28;98238;-69
2024/02/11 01:42:44;;;;;;;;;;;;;;;11.62;51.09;98009.81;4918479;28;98284;-69
2024/02/11 01:45:12;;;;;;;;;;;;;;;11.61;51.02;98009.00;4919298;28;98120;-69
2024/02/11 01:47:39;;;;;;;;;;;;;;;11.62;50.99;98012.50;4911593;28;99768;-69
2024/02/11 01:50:09;;;;;;;;;;;;;;;11.61;50.71;98010.94;4940982;28;99842;-69
2024/02/11 01:52:36;;;;;;;;;;;;;;;11.60;50.98;98004.75;4910895;28;98332;-69
2024/02/11 01:55:04;;;;;;;;;;;;;;;11.60;50.84;98010.16;4908195;28;98789;-69
2024/02/11 01:57:30;;;;;;;;;;;;;;;11.60;51.26;98010.16;4939214;28;98178;-64
2024/02/11 01:59:57;;;;;;;;;;;;;;;11.60;51.06;98003.97;4916060;28;98332;-69
2024/02/11 02:02:29;;;;;;;;;;;;;;;11.60;51.00;98002.06;4905115;28;98346;-65
2024/02/11 02:04:56;;;;;;;;;;;;;;;11.59;51.30;97999.66;4923476;28;98157;-64
2024/02/11 02:07:23;;;;;;;;;;;;;;;11.60;51.08;98006.66;4905077;28;98970;-65
2024/02/11 02:09:54;;;;;;;;;;;;;;;11.58;51.18;98001.56;4921256;28;97928;-64
2024/02/11 02:12:20;;;;;;;;;;;;;;;11.59;51.02;98013.16;4911369;28;98139;-69
2024/02/11 02:14:52;;;;;;;;;;;;;;;11.55;51.01;98005.75;4938575;28;98324;-64
2024/02/11 02:17:21;;;;;;;;;;;;;;;11.58;51.17;98006.19;4926521;28;98575;-64
2024/02/11 02:19:51;;;;;;;;;;;;;;;11.56;51.10;98003.84;4904078;28;98419;-69
2024/02/11 02:22:19;;;;;;;;;;;;;;;11.56;51.00;98009.22;4909922;28;98397;-64
2024/02/11 02:24:45;;;;;;;;;;;;;;;11.55;51.24;97997.66;4912172;28;98118;-69
2024/02/11 02:27:14;;;;;;;;;;;;;;;11.55;51.08;98005.75;4925403;28;98511;-69
2024/02/11 02:29:42;;;;;;;;;;;;;;;11.55;50.95;97999.53;4924528;28;98656;-69
2024/02/11 02:32:10;;;;;;;;;;;;;;;11.54;51.17;97990.66;4903644;28;98417;-64
2024/02/11 02:34:37;;;;;;;;;;;;;;;11.53;51.13;97994.50;4907496;28;98180;-65
2024/02/11 02:37:04;;;;;;;;;;;;;;;11.54;51.17;97997.97;4936164;28;99604;-64
2024/02/11 02:39:32;;;;;;;;;;;;;;;11.53;51.05;97996.41;4910713;28;99957;-65
2024/02/11 02:41:59;;;;;;;;;;;;;;;11.52;51.20;97992.91;4925137;28;98305;-64
2024/02/11 02:44:26;;;;;;;;;;;;;;;11.52;51.11;97994.84;4911072;28;103101;-65
2024/02/11 02:46:52;;;;;;;;;;;;;;;11.52;51.20;97994.84;4927954;28;98150;-64
2024/02/11 02:49:20;;;;;;;;;;;;;;;11.51;51.11;97996.75;4907795;28;98114;-65
2024/02/11 02:51:47;;;;;;;;;;;;;;;11.50;51.26;97991.66;4908791;28;98185;-64
2024/02/11 02:54:14;;;;;;;;;;;;;;;11.50;51.22;98000.53;4906683;28;97961;-69
2024/02/11 02:56:42;;;;;;;;;;;;;;;11.50;51.04;97986.28;4943850;28;98286;-65
2024/02/11 02:59:09;;;;;;;;;;;;;;;11.50;51.13;97988.97;4925159;28;98317;-64
2024/02/11 03:01:42;;;;;;;;;;;;;;;11.49;51.17;97979.31;4921921;28;98640;-64
2024/02/11 03:04:11;;;;;;;;;;;;;;;11.49;51.19;97984.69;4948836;28;98175;-64
2024/02/11 03:06:42;;;;;;;;;;;;;;;11.48;51.09;97989.31;4927216;28;99683;-69
2024/02/11 03:09:08;;;;;;;;;;;;;;;11.47;51.15;97984.22;4906236;28;98085;-69
2024/02/11 03:11:37;;;;;;;;;;;;;;;11.47;51.09;97976.91;4908173;28;98351;-64
2024/02/11 03:14:10;;;;;;;;;;;;;;;11.46;51.34;97969.16;4922515;28;99554;-65
2024/02/11 03:16:40;;;;;;;;;;;;;;;11.45;51.11;97970.31;4906310;28;98794;-64
2024/02/11 03:19:07;;;;;;;;;;;;;;;11.45;51.19;97973.00;4921303;28;98252;-69
2024/02/11 03:21:35;;;;;;;;;;;;;;;11.43;51.22;97965.22;4924448;28;98336;-64
2024/02/11 03:24:04;;;;;;;;;;;;;;;11.44;51.21;97966.81;4930375;28;98722;-69
2024/02/11 03:26:30;;;;;;;;;;;;;;;11.44;51.11;97979.53;4922083;28;98447;-68
2024/02/11 03:29:00;;;;;;;;;;;;;;;11.42;51.23;97969.03;4906956;28;98502;-64
2024/02/11 03:31:27;;;;;;;;;;;;;;;11.42;51.12;97977.13;4904630;28;99977;-68
2024/02/11 03:33:54;;;;;;;;;;;;;;;11.42;51.34;97970.97;4922779;28;99453;-69
2024/02/11 03:36:21;;;;;;;;;;;;;;;11.42;51.10;97970.97;4908178;28;98210;-64
2024/02/11 03:38:47;;;;;;;;;;;;;;;11.41;50.98;97970.19;4901493;28;98318;-64
2024/02/11 03:41:16;;;;;;;;;;;;;;;11.41;50.98;97972.09;4908817;28;97982;-69
2024/02/11 03:43:42;;;;;;;;;;;;;;;11.41;51.11;97970.19;4924229;28;97965;-69
2024/02/11 03:46:09;;;;;;;;;;;;;;;11.41;51.22;97975.56;4922956;28;98078;-69
2024/02/11 03:48:41;;;;;;;;;;;;;;;11.39;51.20;97967.00;4909460;28;98156;-64
2024/02/11 03:51:08;;;;;;;;;;;;;;;11.39;50.93;97969.72;4913021;28;97904;-65
2024/02/11 03:53:37;;;;;;;;;;;;;;;11.37;51.00;97973.88;4908110;28;98219;-64
2024/02/11 03:56:06;;;;;;;;;;;;;;;11.35;51.13;97970.72;4906803;28;98183;-68
2024/02/11 03:58:36;;;;;;;;;;;;;;;11.31;50.90;97968.66;4938359;28;99908;-64
2024/02/11 04:01:05;;;;;;;;;;;;;;;11.30;51.14;97971.72;4942545;28;98168;-68
2024/02/11 04:03:33;;;;;;;;;;;;;;;11.28;51.10;97979.34;4943489;28;98592;-69
2024/02/11 04:06:03;;;;;;;;;;;;;;;11.27;51.29;97972.38;4921000;28;100428;-68
2024/02/11 04:08:30;;;;;;;;;;;;;;;11.24;51.23;97971.13;4919244;28;97973;-68
2024/02/11 04:10:57;;;;;;;;;;;;;;;11.22;51.46;97973.38;4922882;28;101117;-69
2024/02/11 04:13:26;;;;;;;;;;;;;;;11.22;51.34;97984.16;4909942;28;97957;-64
2024/02/11 04:16:05;;;;;;;;;;;;;;;11.20;51.12;97974.81;4921961;28;97996;-64
2024/02/11 04:18:33;;;;;;;;;;;;;;;11.20;50.98;97978.31;4907915;28;98686;-64
2024/02/11 04:21:00;;;;;;;;;;;;;;;11.18;51.10;97971.66;4904270;28;98925;-68
2024/02/11 04:23:27;;;;;;;;;;;;;;;11.17;51.19;97980.88;4927706;28;98200;-68
2024/02/11 04:25:54;;;;;;;;;;;;;;;11.17;51.10;97978.19;4925691;28;98371;-68
2024/02/11 04:28:20;;;;;;;;;;;;;;;11.16;51.08;97980.09;4906262;28;98094;-68
2024/02/11 04:30:47;;;;;;;;;;;;;;;11.14;51.03;97973.44;4909728;28;98303;-68
2024/02/11 04:33:20;;;;;;;;;;;;;;;11.13;51.41;97972.66;4903258;28;97934;-64
2024/02/11 04:35:49;;;;;;;;;;;;;;;11.13;51.19;97971.88;4941190;28;99475;-64
2024/02/11 04:38:17;;;;;;;;;;;;;;;11.12;50.95;97970.28;4937618;28;98237;-68
2024/02/11 04:40:44;;;;;;;;;;;;;;;11.11;51.22;97966.78;4945559;28;99670;-68
2024/02/11 04:43:12;;;;;;;;;;;;;;;11.11;51.05;97974.09;4904980;28;98232;-64
2024/02/11 04:45:39;;;;;;;;;;;;;;;11.09;51.24;97966.34;4919700;28;98025;-68
2024/02/11 04:48:09;;;;;;;;;;;;;;;11.10;51.25;97973.31;4950727;28;97901;-64
2024/02/11 04:50:37;;;;;;;;;;;;;;;11.07;51.38;97958.56;4905662;28;98448;-68
2024/02/11 04:53:07;;;;;;;;;;;;;;;11.07;51.46;97963.97;4938696;28;98168;-64
2024/02/11 04:55:40;;;;;;;;;;;;;;;11.07;51.18;97966.66;4903113;28;98902;-68
2024/02/11 04:58:18;;;;;;;;;;;;;;;11.07;51.24;97965.88;4924761;28;98216;-68
2024/02/11 05:00:54;;;;;;;;;;;;;;;11.06;51.24;97962.41;4913077;28;97989;-64
2024/02/11 05:03:21;;;;;;;;;;;;;;;11.05;51.12;97958.13;4923786;28;98677;-68
2024/02/11 05:05:49;;;;;;;;;;;;;;;11.04;51.37;97961.97;4907193;28;98522;-68
2024/02/11 05:08:19;;;;;;;;;;;;;;;11.03;51.23;97962.28;4904000;28;98003;-64
2024/02/11 05:10:51;;;;;;;;;;;;;;;11.02;51.45;97964.19;4906790;28;98086;-68
2024/02/11 05:13:18;;;;;;;;;;;;;;;11.03;51.24;97960.34;4913392;28;98191;-64
2024/02/11 05:15:49;;;;;;;;;;;;;;;11.02;51.31;97966.88;4911037;28;98038;-64
2024/02/11 05:18:18;;;;;;;;;;;;;;;11.01;50.99;97967.22;4912250;28;98460;-64
2024/02/11 05:20:52;;;;;;;;;;;;;;;11.01;51.15;97964.53;4918553;28;98224;-64
2024/02/11 05:23:20;;;;;;;;;;;;;;;11.00;51.13;97962.94;4933178;28;98869;-64
2024/02/11 05:25:50;;;;;;;;;;;;;;;10.99;51.30;97967.53;4910598;28;99986;-64
2024/02/11 05:28:19;;;;;;;;;;;;;;;10.99;51.49;97964.06;4925538;28;99423;-64
2024/02/11 05:30:48;;;;;;;;;;;;;;;10.97;51.03;97956.31;4935253;28;98104;-68
2024/02/11 05:33:17;;;;;;;;;;;;;;;10.98;51.35;97959.78;4925881;28;98079;-65
2024/02/11 05:35:44;;;;;;;;;;;;;;;10.97;51.32;97955.53;4920379;28;100071;-64
2024/02/11 05:38:12;;;;;;;;;;;;;;;10.97;51.44;97955.53;4926979;28;99792;-68
2024/02/11 05:40:41;;;;;;;;;;;;;;;10.97;51.22;97953.59;4921722;28;98287;-64
2024/02/11 05:43:15;;;;;;;;;;;;;;;10.96;51.39;97957.41;4905689;28;99019;-68
2024/02/11 05:45:43;;;;;;;;;;;;;;;10.96;51.24;97956.63;4924238;28;98781;-68
2024/02/11 05:48:11;;;;;;;;;;;;;;;10.95;51.36;97955.03;4908309;28;98575;-68
2024/02/11 05:50:38;;;;;;;;;;;;;;;10.94;51.18;97953.47;4917761;28;98493;-68
2024/02/11 05:53:05;;;;;;;;;;;;;;;10.94;51.13;97950.78;4907233;28;98298;-65
2024/02/11 05:55:33;;;;;;;;;;;;;;;10.94;51.13;97958.88;4922861;28;99176;-68
2024/02/11 05:58:00;;;;;;;;;;;;;;;10.94;51.25;97956.16;4918238;28;98001;-64
2024/02/11 06:00:31;;;;;;;;;;;;;;;10.93;50.97;97946.53;4922923;28;98270;-64
2024/02/11 06:03:02;;;;;;;;;;;;;;;10.93;51.09;97951.91;4909301;28;98382;-64
2024/02/11 06:05:30;;;;;;;;;;;;;;;10.92;51.15;97956.47;4942093;28;98933;-64
2024/02/11 06:08:00;;;;;;;;;;;;;;;10.92;51.19;97955.69;4923753;28;98783;-64
2024/02/11 06:10:30;;;;;;;;;;;;;;;10.90;51.41;97958.72;4925423;28;97918;-64
2024/02/11 06:12:59;;;;;;;;;;;;;;;10.89;51.26;97959.84;4922416;28;99087;-64
2024/02/11 06:15:27;;;;;;;;;;;;;;;10.89;51.36;97962.56;4908205;28;98177;-68
2024/02/11 06:17:57;;;;;;;;;;;;;;;10.90;51.21;97969.50;4923201;28;98546;-68
2024/02/11 06:20:24;;;;;;;;;;;;;;;10.90;51.24;97974.13;4921056;28;98210;-68
2024/02/11 06:22:54;;;;;;;;;;;;;;;10.88;51.01;97976.34;4925069;28;98357;-64
2024/02/11 06:25:22;;;;;;;;;;;;;;;10.89;51.28;97975.25;4940301;28;98925;-68
2024/02/11 06:27:49;;;;;;;;;;;;;;;10.88;51.23;97976.34;4918822;28;98151;-68
2024/02/11 06:30:17;;;;;;;;;;;;;;;10.87;51.09;97977.47;4907687;28;98493;-68
2024/02/11 06:32:51;;;;;;;;;;;;;;;10.91;51.25;97981.88;4915956;28;98196;-64
2024/02/11 06:35:19;;;;;;;;;;;;;;;10.99;51.16;97982.91;4915118;28;98042;-69
2024/02/11 06:37:48;;;;;;;;;;;;;;;11.06;51.19;97980.47;4934698;28;97989;-69
2024/02/11 06:40:16;;;;;;;;;;;;;;;11.10;51.41;97981.41;4901985;28;99485;-69
2024/02/11 06:42:42;;;;;;;;;;;;;;;11.16;51.33;97987.38;4920443;28;99054;-69
2024/02/11 06:45:09;;;;;;;;;;;;;;;11.20;51.42;97993.69;4917788;28;98316;-69
2024/02/11 06:47:39;;;;;;;;;;;;;;;11.22;51.44;97986.06;4932921;28;98187;-69
2024/02/11 06:50:20;;;;;;;;;;;;;;;11.25;51.25;97991.59;4921937;28;98314;-65
2024/02/11 06:52:50;;;;;;;;;;;;;;;11.27;51.47;97991.25;4903795;28;98142;-65
2024/02/11 06:55:18;;;;;;;;;;;;;;;11.30;51.11;97993.28;4921276;28;99945;-69
2024/02/11 06:57:45;;;;;;;;;;;;;;;11.30;51.31;97994.06;4909487;28;99466;-65
2024/02/11 07:00:12;;;;;;;;;;;;;;;11.31;51.29;97998.34;4907756;28;98224;-69
2024/02/11 07:02:39;;;;;;;;;;;;;;;11.32;51.36;97996.44;4939042;28;98074;-64
2024/02/11 07:05:09;;;;;;;;;;;;;;;11.33;51.34;98000.72;4908770;28;98539;-65
2024/02/11 07:07:36;;;;;;;;;;;;;;;11.35;51.39;98003.06;4923932;28;98062;-64
2024/02/11 07:10:04;;;;;;;;;;;;;;;11.35;51.15;98005.78;4904809;28;98498;-64
2024/02/11 07:12:31;;;;;;;;;;;;;;;11.35;51.34;98000.38;4903883;28;98146;-69
2024/02/11 07:14:57;;;;;;;;;;;;;;;11.37;51.40;98007.03;4900982;28;98392;-65
2024/02/11 07:17:30;;;;;;;;;;;;;;;11.38;51.52;98013.22;4914913;28;98316;-65
2024/02/11 07:20:00;;;;;;;;;;;;;;;11.38;51.32;98008.59;4908540;28;98130;-65
2024/02/11 07:22:26;;;;;;;;;;;;;;;11.39;51.38;98009.38;4902810;28;98341;-65
2024/02/11 07:24:52;;;;;;;;;;;;;;;11.40;51.29;98014.47;4906931;28;98156;-65
2024/02/11 07:27:19;;;;;;;;;;;;;;;11.40;51.48;98019.84;4909261;28;98593;-65
2024/02/11 07:29:52;;;;;;;;;;;;;;;11.42;51.10;98014.13;4904949;28;98567;-65
2024/02/11 07:32:18;;;;;;;;;;;;;;;11.43;51.22;98015.69;4938167;28;98271;-69
2024/02/11 07:34:45;;;;;;;;;;;;;;;11.44;51.10;98012.69;4905451;28;98268;-69
2024/02/11 07:37:11;;;;;;;;;;;;;;;11.46;51.11;98018.50;4903845;28;99972;-69
2024/02/11 07:39:38;;;;;;;;;;;;;;;11.48;51.36;98023.59;4901015;28;98025;-69
2024/02/11 07:42:06;;;;;;;;;;;;;;;11.50;51.22;98022.13;4919248;28;100580;-69
2024/02/11 07:44:32;;;;;;;;;;;;;;;11.53;51.16;98021.47;4922174;28;100745;-69
2024/02/11 07:47:06;;;;;;;;;;;;;;;11.54;51.21;98023.03;4904115;28;99783;-65
2024/02/11 07:49:33;;;;;;;;;;;;;;;11.55;51.41;98023.81;4900538;28;99389;-65
2024/02/11 07:51:59;;;;;;;;;;;;;;;11.57;51.13;98023.50;4918228;28;97981;-69
2024/02/11 07:54:26;;;;;;;;;;;;;;;11.55;51.03;98024.63;4917545;28;98757;-65
2024/02/11 07:56:53;;;;;;;;;;;;;;;11.58;51.32;98031.25;4934029;28;98133;-70
2024/02/11 07:59:21;;;;;;;;;;;;;;;11.60;51.12;98028.25;4900239;28;99126;-69
2024/02/11 08:01:48;;;;;;;;;;;;;;;11.61;51.27;98027.13;4903819;28;99189;-69
2024/02/11 08:04:16;;;;;;;;;;;;;;;11.62;51.14;98026.00;4918061;28;101418;-65
2024/02/11 08:06:43;;;;;;;;;;;;;;;11.63;50.86;98024.88;4901745;28;98307;-69
2024/02/11 08:09:10;;;;;;;;;;;;;;;11.64;51.20;98018.38;4918119;28;98487;-69
2024/02/11 08:11:37;;;;;;;;;;;;;;;11.64;51.45;98023.75;4917120;28;100335;-64
2024/02/11 08:14:07;;;;;;;;;;;;;;;11.65;51.11;98028.81;4902048;28;98302;-64
2024/02/11 08:16:33;;;;;;;;;;;;;;;11.66;51.24;98024.19;4915908;28;99291;-69
2024/02/11 08:19:03;;;;;;;;;;;;;;;11.68;51.22;98021.97;4894945;28;98246;-64
2024/02/11 08:21:29;;;;;;;;;;;;;;;11.70;51.03;98030.50;4899574;28;98109;-64
2024/02/11 08:23:56;;;;;;;;;;;;;;;11.69;51.06;98024.31;4902417;28;98267;-69
2024/02/11 08:26:24;;;;;;;;;;;;;;;11.71;51.10;98032.91;4928616;28;98541;-65
2024/02/11 08:28:51;;;;;;;;;;;;;;;11.73;51.02;98024.44;4915195;28;98042;-65
2024/02/11 08:31:19;;;;;;;;;;;;;;;11.74;51.16;98031.41;4916745;28;98083;-69
2024/02/11 08:33:45;;;;;;;;;;;;;;;11.74;51.16;98031.41;4904406;28;98512;-65
2024/02/11 08:36:13;;;;;;;;;;;;;;;11.75;50.99;98035.69;4919983;28;100210;-64
2024/02/11 08:38:40;;;;;;;;;;;;;;;11.75;51.16;98030.28;4944860;28;98282;-69
2024/02/11 08:41:07;;;;;;;;;;;;;;;11.75;51.09;98027.59;4933741;28;98310;-69
2024/02/11 08:43:35;;;;;;;;;;;;;;;11.76;51.23;98029.19;4906656;28;98021;-65
2024/02/11 08:46:03;;;;;;;;;;;;;;;11.77;51.26;98031.53;4916424;28;98121;-69
2024/02/11 08:48:33;;;;;;;;;;;;;;;11.78;51.20;98033.13;4935333;28;98010;-70
2024/02/11 08:51:07;;;;;;;;;;;;;;;11.81;51.19;98034.38;4922312;28;98536;-64
2024/02/11 08:53:36;;;;;;;;;;;;;;;11.84;51.25;98038.34;4906103;28;100566;-64
2024/02/11 08:56:04;;;;;;;;;;;;;;;11.85;51.08;98035.31;4896630;28;100283;-69
2024/02/11 08:58:32;;;;;;;;;;;;;;;11.85;51.10;98032.59;4913456;28;98120;-69
2024/02/11 09:00:59;;;;;;;;;;;;;;;11.86;51.15;98038.78;4947602;28;98384;-69
2024/02/11 09:03:26;;;;;;;;;;;;;;;11.83;51.07;98037.56;4935021;28;98646;-69
2024/02/11 09:05:53;;;;;;;;;;;;;;;11.85;51.26;98032.59;4914576;28;99660;-69
2024/02/11 09:08:24;;;;;;;;;;;;;;;11.85;51.17;98026.44;4921939;28;98180;-69
2024/02/11 09:10:51;;;;;;;;;;;;;;;11.86;51.12;98042.28;4916269;28;98417;-65
2024/02/11 09:13:17;;;;;;;;;;;;;;;11.86;51.30;98031.47;4900602;28;98386;-65
2024/02/11 09:15:44;;;;;;;;;;;;;;;11.87;51.16;98035.78;4918996;28;99059;-65
2024/02/11 09:18:15;;;;;;;;;;;;;;;11.88;51.22;98028.47;4932148;28;99274;-65
2024/02/11 09:20:43;;;;;;;;;;;;;;;11.91;51.20;98033.97;4916490;28;98855;-69
2024/02/11 09:23:10;;;;;;;;;;;;;;;11.92;51.04;98032.84;4919178;28;99011;-65
2024/02/11 09:25:38;;;;;;;;;;;;;;;11.93;51.05;98030.94;4919734;28;98116;-69
2024/02/11 09:28:06;;;;;;;;;;;;;;;11.95;51.15;98036.81;4913674;28;98130;-65
2024/02/11 09:30:42;;;;;;;;;;;;;;;11.96;51.06;98031.06;4914610;28;98465;-65
2024/02/11 09:33:09;;;;;;;;;;;;;;;11.97;51.20;98032.63;4922547;28;98376;-65
2024/02/11 09:35:36;;;;;;;;;;;;;;;11.99;51.13;98035.81;4903043;28;97952;-65
2024/02/11 09:38:02;;;;;;;;;;;;;;;12.01;51.28;98040.84;4900703;28;98188;-70
2024/02/11 09:40:30;;;;;;;;;;;;;;;12.01;51.05;98036.22;4916881;28;98005;-69
2024/02/11 09:42:57;;;;;;;;;;;;;;;12.02;51.19;98032.44;4905864;28;98394;-65
2024/02/11 09:45:29;;;;;;;;;;;;;;;12.02;51.00;98034.31;4935409;28;99343;-65
2024/02/11 09:47:57;;;;;;;;;;;;;;;12.02;51.13;98037.84;4931696;28;98356;-70
2024/02/11 09:50:24;;;;;;;;;;;;;;;12.01;51.14;98038.94;4922955;28;98750;-65
2024/02/11 09:52:51;;;;;;;;;;;;;;;12.01;51.06;98040.84;4905185;28;98030;-65
2024/02/11 09:55:19;;;;;;;;;;;;;;;12.01;51.19;98048.94;4906613;28;99340;-65
2024/02/11 09:57:48;;;;;;;;;;;;;;;12.01;51.28;98041.63;4902830;28;98443;-65
2024/02/11 10:00:18;;;;;;;;;;;;;;;12.01;51.30;98046.25;4915058;28;98367;-65
2024/02/11 10:02:48;;;;;;;;;;;;;;;12.01;51.27;98033.53;4919907;28;101619;-65
2024/02/11 10:05:16;;;;;;;;;;;;;;;12.01;51.19;98044.34;4897859;28;98066;-70
2024/02/11 10:07:46;;;;;;;;;;;;;;;12.02;51.05;98045.13;4906467;28;98777;-65
2024/02/11 10:10:16;;;;;;;;;;;;;;;12.03;51.19;98039.41;4900671;28;99523;-70
2024/02/11 10:12:42;;;;;;;;;;;;;;;12.04;51.17;98038.28;4920380;28;98395;-65
2024/02/11 10:15:12;;;;;;;;;;;;;;;12.04;51.01;98035.56;4919059;28;98378;-70
2024/02/11 10:17:41;;;;;;;;;;;;;;;12.07;51.08;98038.75;4930101;28;98714;-70
2024/02/11 10:20:09;;;;;;;;;;;;;;;12.07;51.26;98038.75;4917347;28;98267;-70
2024/02/11 10:22:39;;;;;;;;;;;;;;;12.07;51.17;98044.13;4901640;28;98389;-65
2024/02/11 10:25:11;;;;;;;;;;;;;;;12.07;51.20;98034.13;4903186;28;98395;-65
2024/02/11 10:27:38;;;;;;;;;;;;;;;12.07;51.22;98039.53;4932248;28;98293;-65
2024/02/11 10:30:12;;;;;;;;;;;;;;;12.07;51.09;98036.03;4897571;28;98329;-70
2024/02/11 10:32:39;;;;;;;;;;;;;;;12.08;51.06;98029.50;4920836;28;98157;-72
2024/02/11 10:35:08;;;;;;;;;;;;;;;12.07;51.34;98033.34;4900262;28;98305;-65
2024/02/11 10:37:41;;;;;;;;;;;;;;;12.09;51.15;98033.78;4902167;28;98541;-65
2024/02/11 10:40:10;;;;;;;;;;;;;;;12.10;51.10;98029.94;4916053;28;98205;-65
2024/02/11 10:42:40;;;;;;;;;;;;;;;12.11;51.18;98039.66;4920980;28;98390;-65
2024/02/11 10:45:08;;;;;;;;;;;;;;;12.11;51.06;98034.25;4924290;28;98351;-66
2024/02/11 10:47:36;;;;;;;;;;;;;;;12.11;51.14;98029.63;4910482;28;98722;-70
2024/02/11 10:50:06;;;;;;;;;;;;;;;12.11;51.19;98026.16;4907039;28;101108;-70
2024/02/11 10:52:36;;;;;;;;;;;;;;;12.09;51.08;98025.69;4921549;28;99887;-65
2024/02/11 10:55:04;;;;;;;;;;;;;;;12.11;51.15;98026.16;4908283;28;99975;-65
2024/02/11 10:57:34;;;;;;;;;;;;;;;12.11;51.10;98032.31;4924720;28;98010;-65
2024/02/11 11:00:01;;;;;;;;;;;;;;;12.12;51.12;98030.41;4906387;28;98757;-65
2024/02/11 11:02:31;;;;;;;;;;;;;;;12.12;51.16;98025.00;4906661;28;101499;-65
2024/02/11 11:05:03;;;;;;;;;;;;;;;12.13;51.21;98021.97;4920408;28;98354;-70
2024/02/11 11:07:31;;;;;;;;;;;;;;;12.13;51.05;98016.56;4903281;28;98524;-65
2024/02/11 11:09:58;;;;;;;;;;;;;;;12.14;51.38;98020.84;4906346;28;100438;-65
2024/02/11 11:12:26;;;;;;;;;;;;;;;12.14;51.15;98017.34;4907616;28;98538;-66
2024/02/11 11:14:57;;;;;;;;;;;;;;;12.15;51.30;98024.34;4937975;28;98875;-70
2024/02/11 11:17:24;;;;;;;;;;;;;;;12.15;51.16;98016.25;4919979;28;98877;-70
2024/02/11 11:19:52;;;;;;;;;;;;;;;12.16;51.13;98020.50;4906864;28;98289;-65
2024/02/11 11:22:28;;;;;;;;;;;;;;;12.15;51.21;98022.44;4898279;28;98531;-67
2024/02/11 11:24:56;;;;;;;;;;;;;;;12.14;51.33;98023.53;4918436;28;98500;-65
2024/02/11 11:27:23;;;;;;;;;;;;;;;12.15;51.16;98022.44;4919560;28;99509;-65
2024/02/11 11:29:50;;;;;;;;;;;;;;;12.16;51.34;98020.50;4899721;28;100093;-70
2024/02/11 11:32:23;;;;;;;;;;;;;;;12.16;51.36;98021.28;4906106;28;98727;-65
2024/02/11 11:34:51;;;;;;;;;;;;;;;12.16;51.31;98020.50;4915428;28;98299;-66
2024/02/11 11:37:18;;;;;;;;;;;;;;;12.17;51.26;98022.88;4915017;28;99060;-70
2024/02/11 11:39:45;;;;;;;;;;;;;;;12.19;51.36;98017.94;4922958;28;97988;-65
2024/02/11 11:42:14;;;;;;;;;;;;;;;12.20;51.27;98016.00;4919771;28;99568;-65
2024/02/11 11:44:41;;;;;;;;;;;;;;;12.21;51.08;98014.88;4903864;28;98326;-65
2024/02/11 11:47:07;;;;;;;;;;;;;;;12.22;51.10;98019.97;4913817;28;98239;-71
2024/02/11 11:49:35;;;;;;;;;;;;;;;12.24;51.08;98022.31;4899795;28;98462;-66
2024/02/11 11:52:08;;;;;;;;;;;;;;;12.25;51.32;98015.78;4911979;28;98300;-66
2024/02/11 11:54:36;;;;;;;;;;;;;;;12.26;51.33;98020.06;4937290;28;98479;-65
2024/02/11 11:57:05;;;;;;;;;;;;;;;12.26;51.12;98020.88;4905019;28;98612;-71
2024/02/11 11:59:35;;;;;;;;;;;;;;;12.26;51.46;98015.47;4935657;28;98027;-65
2024/02/11 12:02:04;;;;;;;;;;;;;;;12.28;51.36;98020.53;4922988;28;98933;-71
2024/02/11 12:04:36;;;;;;;;;;;;;;;12.28;51.15;98017.81;4914032;28;98546;-70
2024/02/11 12:07:07;;;;;;;;;;;;;;;12.26;51.32;98031.66;4910090;28;98192;-65
2024/02/11 12:09:34;;;;;;;;;;;;;;;12.28;51.23;98028.63;4938497;28;101110;-70
2024/02/11 12:12:00;;;;;;;;;;;;;;;12.30;51.23;98023.69;4917685;28;99576;-65
2024/02/11 12:14:27;;;;;;;;;;;;;;;12.31;51.10;98022.56;4905713;28;98290;-65
2024/02/11 12:16:55;;;;;;;;;;;;;;;12.33;51.27;98017.59;4923779;28;98832;-70
2024/02/11 12:19:25;;;;;;;;;;;;;;;12.36;51.22;98022.31;4899156;28;99167;-65
2024/02/11 12:21:54;;;;;;;;;;;;;;;12.38;51.41;98024.66;4914959;28;98189;-66
2024/02/11 12:24:21;;;;;;;;;;;;;;;12.40;50.98;98023.22;4931198;28;98164;-70
2024/02/11 12:26:48;;;;;;;;;;;;;;;12.42;51.08;98010.19;4930402;28;98372;-70
2024/02/11 12:29:23;;;;;;;;;;;;;;;12.45;51.28;98014.09;4906416;28;98155;-70
2024/02/11 12:31:52;;;;;;;;;;;;;;;12.49;51.11;98020.41;4903909;28;99748;-65
2024/02/11 12:34:21;;;;;;;;;;;;;;;12.52;51.02;98011.63;4920935;28;99903;-66
2024/02/11 12:36:48;;;;;;;;;;;;;;;12.56;51.02;98011.72;4901915;28;99077;-70
2024/02/11 12:39:14;;;;;;;;;;;;;;;12.59;51.08;98014.56;4919489;28;98276;-70
2024/02/11 12:41:41;;;;;;;;;;;;;;;12.63;51.22;98015.44;4918319;28;98478;-70
2024/02/11 12:44:08;;;;;;;;;;;;;;;12.66;51.15;98012.06;4906788;28;98065;-66
2024/02/11 12:46:35;;;;;;;;;;;;;;;12.69;51.17;98013.28;4902556;28;98185;-70
2024/02/11 12:49:02;;;;;;;;;;;;;;;12.70;51.17;98012.97;4933224;28;98170;-70
2024/02/11 12:51:28;;;;;;;;;;;;;;;12.74;50.88;98013.06;4902683;28;98110;-70